sensor_id;sensor_type;location;lat;lon;timestamp;temperature;humidity
68433;DHT22;55412;51.350;17.056;2022-09-12T00:01:23;15.80;75.20
68433;DHT22;55412;51.350;17.056;2022-09-12T00:03:53;15.80;75.00
68433;DHT22;55412;51.350;17.056;2022-09-12T00:06:24;15.80;75.00
68433;DHT22;55412;51.350;17.056;2022-09-12T00:08:57;15.80;75.10
68433;DHT22;55412;51.350;17.056;2022-09-12T00:11:26;15.80;75.20
68433;DHT22;55412;51.350;17.056;2022-09-12T00:13:59;15.80;74.90
68433;DHT22;55412;51.350;17.056;2022-09-12T00:16:28;15.80;74.90
68433;DHT22;55412;51.350;17.056;2022-09-12T00:18:55;15.80;75.10
68433;DHT22;55412;51.350;17.056;2022-09-12T00:21:22;15.80;75.00
68433;DHT22;55412;51.350;17.056;2022-09-12T00:23:49;15.80;75.60
68433;DHT22;55412;51.350;17.056;2022-09-12T00:26:17;15.80;75.00
68433;DHT22;55412;51.350;17.056;2022-09-12T00:28:44;15.80;74.60
68433;DHT22;55412;51.350;17.056;2022-09-12T00:31:19;15.80;74.70
68433;DHT22;55412;51.350;17.056;2022-09-12T00:33:46;15.70;75.20
68433;DHT22;55412;51.350;17.056;2022-09-12T00:36:15;15.70;75.20
68433;DHT22;55412;51.350;17.056;2022-09-12T00:38:44;15.70;75.20
68433;DHT22;55412;51.350;17.056;2022-09-12T00:41:18;15.70;74.90
68433;DHT22;55412;51.350;17.056;2022-09-12T00:43:58;15.70;74.90
68433;DHT22;55412;51.350;17.056;2022-09-12T00:49:23;15.70;75.30
68433;DHT22;55412;51.350;17.056;2022-09-12T00:52:00;15.70;75.10
68433;DHT22;55412;51.350;17.056;2022-09-12T00:57:41;15.70;75.40
68433;DHT22;55412;51.350;17.056;2022-09-12T01:00:16;15.70;75.40
68433;DHT22;55412;51.350;17.056;2022-09-12T01:02:45;15.70;75.20
68433;DHT22;55412;51.350;17.056;2022-09-12T01:05:18;15.70;75.60
68433;DHT22;55412;51.350;17.056;2022-09-12T01:07:45;15.70;75.50
68433;DHT22;55412;51.350;17.056;2022-09-12T01:10:15;15.70;75.60
68433;DHT22;55412;51.350;17.056;2022-09-12T01:12:42;15.70;75.80
68433;DHT22;55412;51.350;17.056;2022-09-12T01:15:10;15.70;75.70
68433;DHT22;55412;51.350;17.056;2022-09-12T01:23:50;15.70;75.60
68433;DHT22;55412;51.350;17.056;2022-09-12T01:29:31;15.70;75.10
68433;DHT22;55412;51.350;17.056;2022-09-12T01:47:04;15.60;75.10
68433;DHT22;55412;51.350;17.056;2022-09-12T01:50:02;15.60;75.10
68433;DHT22;55412;51.350;17.056;2022-09-12T01:52:59;15.50;75.10
68433;DHT22;55412;51.350;17.056;2022-09-12T01:55:35;15.50;75.60
68433;DHT22;55412;51.350;17.056;2022-09-12T01:58:25;15.50;75.60
68433;DHT22;55412;51.350;17.056;2022-09-12T02:00:57;15.50;75.70
68433;DHT22;55412;51.350;17.056;2022-09-12T02:03:39;15.50;75.90
68433;DHT22;55412;51.350;17.056;2022-09-12T02:06:48;15.50;75.40
68433;DHT22;55412;51.350;17.056;2022-09-12T02:09:58;15.50;75.40
68433;DHT22;55412;51.350;17.056;2022-09-12T02:12:20;15.50;76.00
68433;DHT22;55412;51.350;17.056;2022-09-12T02:14:53;15.50;75.80
68433;DHT22;55412;51.350;17.056;2022-09-12T02:17:24;15.50;75.60
68433;DHT22;55412;51.350;17.056;2022-09-12T02:20:09;15.50;75.40
68433;DHT22;55412;51.350;17.056;2022-09-12T02:22:41;15.50;75.10
68433;DHT22;55412;51.350;17.056;2022-09-12T02:25:09;15.50;75.20
68433;DHT22;55412;51.350;17.056;2022-09-12T02:27:40;15.50;74.60
68433;DHT22;55412;51.350;17.056;2022-09-12T02:30:18;15.40;74.90
68433;DHT22;55412;51.350;17.056;2022-09-12T02:32:59;15.40;74.80
68433;DHT22;55412;51.350;17.056;2022-09-12T02:35:38;15.40;75.00
68433;DHT22;55412;51.350;17.056;2022-09-12T02:38:42;15.40;75.30
68433;DHT22;55412;51.350;17.056;2022-09-12T02:41:12;15.30;75.10
68433;DHT22;55412;51.350;17.056;2022-09-12T02:43:39;15.30;75.30
68433;DHT22;55412;51.350;17.056;2022-09-12T02:46:19;15.30;75.80
68433;DHT22;55412;51.350;17.056;2022-09-12T02:48:47;15.30;75.60
68433;DHT22;55412;51.350;17.056;2022-09-12T02:51:13;15.30;75.80
68433;DHT22;55412;51.350;17.056;2022-09-12T02:53:40;15.30;75.80
68433;DHT22;55412;51.350;17.056;2022-09-12T02:56:11;15.30;75.90
68433;DHT22;55412;51.350;17.056;2022-09-12T02:58:43;15.30;75.50
68433;DHT22;55412;51.350;17.056;2022-09-12T03:01:30;15.30;75.70
68433;DHT22;55412;51.350;17.056;2022-09-12T03:07:10;15.30;76.40
68433;DHT22;55412;51.350;17.056;2022-09-12T03:16:00;15.40;76.60
68433;DHT22;55412;51.350;17.056;2022-09-12T03:24:18;15.40;76.30
68433;DHT22;55412;51.350;17.056;2022-09-12T03:27:32;15.50;76.00
68433;DHT22;55412;51.350;17.056;2022-09-12T03:29:55;15.40;75.80
68433;DHT22;55412;51.350;17.056;2022-09-12T03:32:46;15.40;76.10
68433;DHT22;55412;51.350;17.056;2022-09-12T03:35:15;15.40;75.60
68433;DHT22;55412;51.350;17.056;2022-09-12T03:37:42;15.40;76.00
68433;DHT22;55412;51.350;17.056;2022-09-12T03:40:09;15.40;75.80
68433;DHT22;55412;51.350;17.056;2022-09-12T03:42:36;15.40;75.90
68433;DHT22;55412;51.350;17.056;2022-09-12T03:45:04;15.40;75.80
68433;DHT22;55412;51.350;17.056;2022-09-12T03:47:31;15.50;76.30
68433;DHT22;55412;51.350;17.056;2022-09-12T03:49:57;15.50;76.00
68433;DHT22;55412;51.350;17.056;2022-09-12T03:52:23;15.50;76.10
68433;DHT22;55412;51.350;17.056;2022-09-12T03:54:50;15.50;76.30
68433;DHT22;55412;51.350;17.056;2022-09-12T03:57:16;15.50;76.10
68433;DHT22;55412;51.350;17.056;2022-09-12T03:59:42;15.50;76.20
68433;DHT22;55412;51.350;17.056;2022-09-12T04:02:08;15.50;76.10
68433;DHT22;55412;51.350;17.056;2022-09-12T04:04:37;15.50;76.20
68433;DHT22;55412;51.350;17.056;2022-09-12T04:07:06;15.60;75.90
68433;DHT22;55412;51.350;17.056;2022-09-12T04:09:32;15.50;75.90
68433;DHT22;55412;51.350;17.056;2022-09-12T04:11:58;15.60;76.00
68433;DHT22;55412;51.350;17.056;2022-09-12T04:14:24;15.60;76.20
68433;DHT22;55412;51.350;17.056;2022-09-12T04:16:50;15.60;75.70
68433;DHT22;55412;51.350;17.056;2022-09-12T04:19:16;15.50;76.10
68433;DHT22;55412;51.350;17.056;2022-09-12T04:21:43;15.60;76.00
68433;DHT22;55412;51.350;17.056;2022-09-12T04:24:09;15.60;76.10
68433;DHT22;55412;51.350;17.056;2022-09-12T04:26:35;15.60;76.20
68433;DHT22;55412;51.350;17.056;2022-09-12T04:29:01;15.60;76.20
68433;DHT22;55412;51.350;17.056;2022-09-12T04:31:27;15.60;75.70
68433;DHT22;55412;51.350;17.056;2022-09-12T04:33:57;15.60;75.90
68433;DHT22;55412;51.350;17.056;2022-09-12T04:36:25;15.60;76.20
68433;DHT22;55412;51.350;17.056;2022-09-12T04:38:53;15.70;76.60
68433;DHT22;55412;51.350;17.056;2022-09-12T04:41:25;15.70;76.80
68433;DHT22;55412;51.350;17.056;2022-09-12T04:43:57;15.80;76.50
68433;DHT22;55412;51.350;17.056;2022-09-12T04:46:27;15.90;76.60
68433;DHT22;55412;51.350;17.056;2022-09-12T04:48:55;16.00;76.30
68433;DHT22;55412;51.350;17.056;2022-09-12T04:51:24;16.10;76.00
68433;DHT22;55412;51.350;17.056;2022-09-12T04:53:55;16.10;75.90
68433;DHT22;55412;51.350;17.056;2022-09-12T04:56:25;16.30;75.80
68433;DHT22;55412;51.350;17.056;2022-09-12T04:58:52;16.40;75.50
68433;DHT22;55412;51.350;17.056;2022-09-12T05:01:20;16.50;75.40
68433;DHT22;55412;51.350;17.056;2022-09-12T05:03:49;16.60;74.90
68433;DHT22;55412;51.350;17.056;2022-09-12T05:06:21;16.70;75.00
68433;DHT22;55412;51.350;17.056;2022-09-12T05:08:49;16.90;74.70
68433;DHT22;55412;51.350;17.056;2022-09-12T05:11:21;17.00;74.50
68433;DHT22;55412;51.350;17.056;2022-09-12T05:13:49;17.10;74.30
68433;DHT22;55412;51.350;17.056;2022-09-12T05:16:17;17.20;73.90
68433;DHT22;55412;51.350;17.056;2022-09-12T05:18:44;17.40;73.30
68433;DHT22;55412;51.350;17.056;2022-09-12T05:21:13;17.50;73.00
68433;DHT22;55412;51.350;17.056;2022-09-12T05:23:42;17.60;72.50
68433;DHT22;55412;51.350;17.056;2022-09-12T05:26:12;17.80;71.80
68433;DHT22;55412;51.350;17.056;2022-09-12T05:28:39;17.90;71.60
68433;DHT22;55412;51.350;17.056;2022-09-12T05:31:15;18.00;71.30
68433;DHT22;55412;51.350;17.056;2022-09-12T05:33:44;18.10;70.60
68433;DHT22;55412;51.350;17.056;2022-09-12T05:36:13;18.20;70.20
68433;DHT22;55412;51.350;17.056;2022-09-12T05:38:42;18.30;70.00
68433;DHT22;55412;51.350;17.056;2022-09-12T05:41:11;18.50;69.70
68433;DHT22;55412;51.350;17.056;2022-09-12T05:43:40;18.60;69.10
68433;DHT22;55412;51.350;17.056;2022-09-12T05:46:16;18.70;69.40
68433;DHT22;55412;51.350;17.056;2022-09-12T05:48:45;18.90;68.80
68433;DHT22;55412;51.350;17.056;2022-09-12T05:51:18;19.10;68.50
68433;DHT22;55412;51.350;17.056;2022-09-12T05:53:51;19.20;68.30
68433;DHT22;55412;51.350;17.056;2022-09-12T05:56:21;19.30;66.90
68433;DHT22;55412;51.350;17.056;2022-09-12T05:58:53;19.50;67.30
68433;DHT22;55412;51.350;17.056;2022-09-12T06:01:21;19.60;66.30
68433;DHT22;55412;51.350;17.056;2022-09-12T06:03:50;19.80;66.10
68433;DHT22;55412;51.350;17.056;2022-09-12T06:06:19;19.90;65.00
68433;DHT22;55412;51.350;17.056;2022-09-12T06:08:49;20.10;65.20
68433;DHT22;55412;51.350;17.056;2022-09-12T06:11:19;20.20;65.10
68433;DHT22;55412;51.350;17.056;2022-09-12T06:13:47;20.40;64.20
68433;DHT22;55412;51.350;17.056;2022-09-12T06:16:20;20.40;63.30
68433;DHT22;55412;51.350;17.056;2022-09-12T06:18:50;20.40;63.50
68433;DHT22;55412;51.350;17.056;2022-09-12T06:21:21;20.40;63.60
68433;DHT22;55412;51.350;17.056;2022-09-12T06:23:49;20.50;63.40
68433;DHT22;55412;51.350;17.056;2022-09-12T06:26:17;20.60;63.20
68433;DHT22;55412;51.350;17.056;2022-09-12T06:28:46;20.70;63.90
68433;DHT22;55412;51.350;17.056;2022-09-12T06:31:14;20.80;63.60
68433;DHT22;55412;51.350;17.056;2022-09-12T06:33:45;20.90;63.10
68433;DHT22;55412;51.350;17.056;2022-09-12T06:36:20;21.10;62.90
68433;DHT22;55412;51.350;17.056;2022-09-12T06:39:02;21.20;62.40
68433;DHT22;55412;51.350;17.056;2022-09-12T06:41:31;21.40;62.50
68433;DHT22;55412;51.350;17.056;2022-09-12T06:43:58;21.50;62.00
68433;DHT22;55412;51.350;17.056;2022-09-12T06:46:25;21.70;61.50
68433;DHT22;55412;51.350;17.056;2022-09-12T06:48:52;21.90;59.10
68433;DHT22;55412;51.350;17.056;2022-09-12T06:51:20;22.10;60.20
68433;DHT22;55412;51.350;17.056;2022-09-12T06:53:47;22.20;58.90
68433;DHT22;55412;51.350;17.056;2022-09-12T06:56:17;22.30;58.90
68433;DHT22;55412;51.350;17.056;2022-09-12T06:58:46;22.40;58.60
68433;DHT22;55412;51.350;17.056;2022-09-12T07:01:18;22.50;56.70
68433;DHT22;55412;51.350;17.056;2022-09-12T07:03:48;22.70;57.10
68433;DHT22;55412;51.350;17.056;2022-09-12T07:06:17;22.80;57.10
68433;DHT22;55412;51.350;17.056;2022-09-12T07:08:45;22.90;56.40
68433;DHT22;55412;51.350;17.056;2022-09-12T07:11:23;23.00;54.90
68433;DHT22;55412;51.350;17.056;2022-09-12T07:13:53;23.10;54.70
68433;DHT22;55412;51.350;17.056;2022-09-12T07:16:20;23.10;53.50
68433;DHT22;55412;51.350;17.056;2022-09-12T07:18:54;23.10;54.00
68433;DHT22;55412;51.350;17.056;2022-09-12T07:21:25;23.10;54.00
68433;DHT22;55412;51.350;17.056;2022-09-12T07:23:52;23.20;54.10
68433;DHT22;55412;51.350;17.056;2022-09-12T07:26:26;23.20;52.90
68433;DHT22;55412;51.350;17.056;2022-09-12T07:28:54;23.30;51.40
68433;DHT22;55412;51.350;17.056;2022-09-12T07:31:23;23.40;52.10
68433;DHT22;55412;51.350;17.056;2022-09-12T07:33:50;23.40;51.50
68433;DHT22;55412;51.350;17.056;2022-09-12T07:36:18;23.50;51.90
68433;DHT22;55412;51.350;17.056;2022-09-12T07:38:45;23.50;50.50
68433;DHT22;55412;51.350;17.056;2022-09-12T07:41:22;23.60;50.70
68433;DHT22;55412;51.350;17.056;2022-09-12T07:43:54;23.70;50.50
68433;DHT22;55412;51.350;17.056;2022-09-12T07:46:21;23.80;50.30
68433;DHT22;55412;51.350;17.056;2022-09-12T07:48:49;23.90;50.30
68433;DHT22;55412;51.350;17.056;2022-09-12T07:51:16;24.00;50.70
68433;DHT22;55412;51.350;17.056;2022-09-12T07:53:43;24.10;52.00
68433;DHT22;55412;51.350;17.056;2022-09-12T07:56:10;24.20;49.30
68433;DHT22;55412;51.350;17.056;2022-09-12T07:58:39;24.30;49.70
68433;DHT22;55412;51.350;17.056;2022-09-12T08:01:17;24.40;48.90
68433;DHT22;55412;51.350;17.056;2022-09-12T08:03:46;24.40;49.60
68433;DHT22;55412;51.350;17.056;2022-09-12T08:06:16;24.50;50.60
68433;DHT22;55412;51.350;17.056;2022-09-12T08:08:47;24.50;50.20
68433;DHT22;55412;51.350;17.056;2022-09-12T08:11:15;24.50;48.50
68433;DHT22;55412;51.350;17.056;2022-09-12T08:13:43;24.50;48.30
68433;DHT22;55412;51.350;17.056;2022-09-12T08:16:18;24.40;48.30
68433;DHT22;55412;51.350;17.056;2022-09-12T08:18:48;24.40;48.40
68433;DHT22;55412;51.350;17.056;2022-09-12T08:21:17;24.30;48.00
68433;DHT22;55412;51.350;17.056;2022-09-12T08:23:45;24.20;48.90
68433;DHT22;55412;51.350;17.056;2022-09-12T08:26:12;24.00;48.50
68433;DHT22;55412;51.350;17.056;2022-09-12T08:28:38;23.90;47.20
68433;DHT22;55412;51.350;17.056;2022-09-12T08:31:08;23.80;50.90
68433;DHT22;55412;51.350;17.056;2022-09-12T08:33:36;23.70;50.10
68433;DHT22;55412;51.350;17.056;2022-09-12T08:38:45;23.50;51.10
68433;DHT22;55412;51.350;17.056;2022-09-12T08:41:35;23.40;50.30
68433;DHT22;55412;51.350;17.056;2022-09-12T08:47:42;23.10;50.80
68433;DHT22;55412;51.350;17.056;2022-09-12T08:50:11;23.00;50.60
68433;DHT22;55412;51.350;17.056;2022-09-12T08:53:01;22.90;51.00
68433;DHT22;55412;51.350;17.056;2022-09-12T08:55:36;22.80;50.00
68433;DHT22;55412;51.350;17.056;2022-09-12T08:58:19;22.70;50.60
68433;DHT22;55412;51.350;17.056;2022-09-12T09:09:46;22.90;50.00
68433;DHT22;55412;51.350;17.056;2022-09-12T09:12:57;22.80;51.00
68433;DHT22;55412;51.350;17.056;2022-09-12T09:18:26;22.70;50.80
68433;DHT22;55412;51.350;17.056;2022-09-12T09:21:21;22.70;50.70
68433;DHT22;55412;51.350;17.056;2022-09-12T09:24:17;22.70;51.30
68433;DHT22;55412;51.350;17.056;2022-09-12T09:26:56;22.70;52.00
68433;DHT22;55412;51.350;17.056;2022-09-12T09:29:35;22.80;51.70
68433;DHT22;55412;51.350;17.056;2022-09-12T09:32:34;22.80;51.90
68433;DHT22;55412;51.350;17.056;2022-09-12T09:35:44;22.80;51.50
68433;DHT22;55412;51.350;17.056;2022-09-12T09:43:25;22.60;51.30
68433;DHT22;55412;51.350;17.056;2022-09-12T09:45:56;22.60;51.50
68433;DHT22;55412;51.350;17.056;2022-09-12T09:48:33;22.60;52.70
68433;DHT22;55412;51.350;17.056;2022-09-12T09:51:03;22.60;51.70
68433;DHT22;55412;51.350;17.056;2022-09-12T09:53:56;22.60;52.40
68433;DHT22;55412;51.350;17.056;2022-09-12T09:56:30;22.80;51.10
68433;DHT22;55412;51.350;17.056;2022-09-12T09:59:28;22.80;52.60
68433;DHT22;55412;51.350;17.056;2022-09-12T10:04:40;23.00;51.50
68433;DHT22;55412;51.350;17.056;2022-09-12T10:07:19;23.00;51.10
68433;DHT22;55412;51.350;17.056;2022-09-12T10:12:42;23.00;52.80
68433;DHT22;55412;51.350;17.056;2022-09-12T10:15:37;23.10;53.30
68433;DHT22;55412;51.350;17.056;2022-09-12T10:18:03;23.20;53.00
68433;DHT22;55412;51.350;17.056;2022-09-12T10:25:47;23.20;51.80
68433;DHT22;55412;51.350;17.056;2022-09-12T10:28:23;23.20;51.70
68433;DHT22;55412;51.350;17.056;2022-09-12T10:30:54;23.20;51.80
68433;DHT22;55412;51.350;17.056;2022-09-12T10:33:22;23.20;53.00
68433;DHT22;55412;51.350;17.056;2022-09-12T10:35:52;23.20;51.00
68433;DHT22;55412;51.350;17.056;2022-09-12T10:38:23;23.20;51.20
68433;DHT22;55412;51.350;17.056;2022-09-12T10:41:07;23.20;51.10
68433;DHT22;55412;51.350;17.056;2022-09-12T10:43:38;23.20;52.10
68433;DHT22;55412;51.350;17.056;2022-09-12T10:48:42;23.30;52.60
68433;DHT22;55412;51.350;17.056;2022-09-12T10:53:51;23.20;50.70
68433;DHT22;55412;51.350;17.056;2022-09-12T10:56:31;23.20;53.10
68433;DHT22;55412;51.350;17.056;2022-09-12T10:59:29;23.20;53.00
68433;DHT22;55412;51.350;17.056;2022-09-12T11:02:13;23.10;53.20
68433;DHT22;55412;51.350;17.056;2022-09-12T11:05:17;23.10;51.50
68433;DHT22;55412;51.350;17.056;2022-09-12T11:08:27;23.10;52.00
68433;DHT22;55412;51.350;17.056;2022-09-12T11:16:36;22.80;50.20
68433;DHT22;55412;51.350;17.056;2022-09-12T11:19:36;22.80;52.30
68433;DHT22;55412;51.350;17.056;2022-09-12T11:30:15;22.80;50.30
68433;DHT22;55412;51.350;17.056;2022-09-12T11:35:28;22.70;51.10
68433;DHT22;55412;51.350;17.056;2022-09-12T11:38:10;22.70;50.90
68433;DHT22;55412;51.350;17.056;2022-09-12T11:41:07;22.70;52.30
68433;DHT22;55412;51.350;17.056;2022-09-12T11:43:59;22.70;52.70
68433;DHT22;55412;51.350;17.056;2022-09-12T11:46:38;22.70;52.80
68433;DHT22;55412;51.350;17.056;2022-09-12T11:49:18;22.80;52.80
68433;DHT22;55412;51.350;17.056;2022-09-12T11:51:52;22.90;51.80
68433;DHT22;55412;51.350;17.056;2022-09-12T11:54:59;22.90;51.90
68433;DHT22;55412;51.350;17.056;2022-09-12T12:00:17;22.70;50.10
68433;DHT22;55412;51.350;17.056;2022-09-12T12:05:54;22.50;50.90
68433;DHT22;55412;51.350;17.056;2022-09-12T12:08:25;22.40;52.60
68433;DHT22;55412;51.350;17.056;2022-09-12T12:11:00;22.30;53.30
68433;DHT22;55412;51.350;17.056;2022-09-12T12:16:07;22.20;53.40
68433;DHT22;55412;51.350;17.056;2022-09-12T12:18:39;22.10;54.70
68433;DHT22;55412;51.350;17.056;2022-09-12T12:21:44;22.00;54.80
68433;DHT22;55412;51.350;17.056;2022-09-12T12:34:44;22.00;53.10
68433;DHT22;55412;51.350;17.056;2022-09-12T12:47:47;22.20;54.20
68433;DHT22;55412;51.350;17.056;2022-09-12T12:53:03;22.30;53.20
68433;DHT22;55412;51.350;17.056;2022-09-12T13:01:10;22.50;52.90
68433;DHT22;55412;51.350;17.056;2022-09-12T13:03:43;22.50;53.50
68433;DHT22;55412;51.350;17.056;2022-09-12T13:09:31;22.60;54.10
68433;DHT22;55412;51.350;17.056;2022-09-12T13:12:07;22.70;53.40
68433;DHT22;55412;51.350;17.056;2022-09-12T13:17:16;22.80;51.60
68433;DHT22;55412;51.350;17.056;2022-09-12T13:19:44;22.70;51.30
68433;DHT22;55412;51.350;17.056;2022-09-12T13:22:11;22.60;51.10
68433;DHT22;55412;51.350;17.056;2022-09-12T13:24:44;22.50;52.20
68433;DHT22;55412;51.350;17.056;2022-09-12T13:27:24;22.40;51.70
68433;DHT22;55412;51.350;17.056;2022-09-12T13:30:13;22.30;51.00
68433;DHT22;55412;51.350;17.056;2022-09-12T13:32:41;22.20;51.30
68433;DHT22;55412;51.350;17.056;2022-09-12T13:35:14;22.00;53.40
68433;DHT22;55412;51.350;17.056;2022-09-12T13:38:08;22.00;52.10
68433;DHT22;55412;51.350;17.056;2022-09-12T13:43:37;21.70;52.30
68433;DHT22;55412;51.350;17.056;2022-09-12T13:46:07;21.70;54.40
68433;DHT22;55412;51.350;17.056;2022-09-12T13:48:34;21.60;54.50
68433;DHT22;55412;51.350;17.056;2022-09-12T13:51:01;21.50;53.70
68433;DHT22;55412;51.350;17.056;2022-09-12T13:53:48;21.40;53.70
68433;DHT22;55412;51.350;17.056;2022-09-12T13:56:17;21.40;54.30
68433;DHT22;55412;51.350;17.056;2022-09-12T13:58:52;21.30;54.00
68433;DHT22;55412;51.350;17.056;2022-09-12T14:01:44;21.30;53.50
68433;DHT22;55412;51.350;17.056;2022-09-12T14:04:19;21.20;54.20
68433;DHT22;55412;51.350;17.056;2022-09-12T14:07:15;21.20;55.80
68433;DHT22;55412;51.350;17.056;2022-09-12T14:09:52;21.10;56.20
68433;DHT22;55412;51.350;17.056;2022-09-12T14:14:54;21.10;56.90
68433;DHT22;55412;51.350;17.056;2022-09-12T14:17:32;21.10;57.00
68433;DHT22;55412;51.350;17.056;2022-09-12T14:20:06;21.10;56.60
68433;DHT22;55412;51.350;17.056;2022-09-12T14:22:36;21.10;57.70
68433;DHT22;55412;51.350;17.056;2022-09-12T14:25:04;21.10;57.50
68433;DHT22;55412;51.350;17.056;2022-09-12T14:27:41;21.10;57.80
68433;DHT22;55412;51.350;17.056;2022-09-12T14:30:26;21.00;58.10
68433;DHT22;55412;51.350;17.056;2022-09-12T14:33:24;21.00;58.60
68433;DHT22;55412;51.350;17.056;2022-09-12T14:36:10;21.00;57.60
68433;DHT22;55412;51.350;17.056;2022-09-12T14:38:42;20.90;57.70
68433;DHT22;55412;51.350;17.056;2022-09-12T14:41:11;20.90;57.90
68433;DHT22;55412;51.350;17.056;2022-09-12T14:43:51;20.80;59.20
68433;DHT22;55412;51.350;17.056;2022-09-12T14:46:33;20.80;59.20
68433;DHT22;55412;51.350;17.056;2022-09-12T14:52:18;20.70;59.40
68433;DHT22;55412;51.350;17.056;2022-09-12T14:55:03;20.60;59.90
68433;DHT22;55412;51.350;17.056;2022-09-12T14:57:34;20.60;59.20
68433;DHT22;55412;51.350;17.056;2022-09-12T15:00:22;20.60;58.10
68433;DHT22;55412;51.350;17.056;2022-09-12T15:02:49;20.60;58.60
68433;DHT22;55412;51.350;17.056;2022-09-12T15:05:18;20.60;58.30
68433;DHT22;55412;51.350;17.056;2022-09-12T15:10:24;20.60;57.80
68433;DHT22;55412;51.350;17.056;2022-09-12T15:13:17;20.60;57.40
68433;DHT22;55412;51.350;17.056;2022-09-12T15:15:58;20.50;57.80
68433;DHT22;55412;51.350;17.056;2022-09-12T15:18:26;20.50;58.20
68433;DHT22;55412;51.350;17.056;2022-09-12T15:21:00;20.50;58.60
68433;DHT22;55412;51.350;17.056;2022-09-12T15:23:38;20.40;58.60
68433;DHT22;55412;51.350;17.056;2022-09-12T15:26:10;20.40;59.70
68433;DHT22;55412;51.350;17.056;2022-09-12T15:28:38;20.40;59.60
68433;DHT22;55412;51.350;17.056;2022-09-12T15:31:23;20.30;60.20
68433;DHT22;55412;51.350;17.056;2022-09-12T15:33:52;20.30;60.00
68433;DHT22;55412;51.350;17.056;2022-09-12T15:36:20;20.30;60.90
68433;DHT22;55412;51.350;17.056;2022-09-12T15:38:48;20.30;61.10
68433;DHT22;55412;51.350;17.056;2022-09-12T15:43:43;20.20;61.50
68433;DHT22;55412;51.350;17.056;2022-09-12T15:46:11;20.20;62.00
68433;DHT22;55412;51.350;17.056;2022-09-12T15:48:38;20.20;62.20
68433;DHT22;55412;51.350;17.056;2022-09-12T15:51:15;20.20;62.40
68433;DHT22;55412;51.350;17.056;2022-09-12T15:53:43;20.20;62.50
68433;DHT22;55412;51.350;17.056;2022-09-12T15:56:09;20.20;62.40
68433;DHT22;55412;51.350;17.056;2022-09-12T15:58:36;20.10;62.40
68433;DHT22;55412;51.350;17.056;2022-09-12T16:01:03;20.10;62.30
68433;DHT22;55412;51.350;17.056;2022-09-12T16:03:30;20.10;62.00
68433;DHT22;55412;51.350;17.056;2022-09-12T16:05:59;20.00;62.30
68433;DHT22;55412;51.350;17.056;2022-09-12T16:08:28;20.00;62.60
68433;DHT22;55412;51.350;17.056;2022-09-12T16:11:03;20.00;62.90
68433;DHT22;55412;51.350;17.056;2022-09-12T16:13:32;20.00;62.90
68433;DHT22;55412;51.350;17.056;2022-09-12T16:15:59;19.90;63.20
68433;DHT22;55412;51.350;17.056;2022-09-12T16:18:26;19.90;63.40
68433;DHT22;55412;51.350;17.056;2022-09-12T16:20:54;19.80;63.40
68433;DHT22;55412;51.350;17.056;2022-09-12T16:23:21;19.80;63.40
68433;DHT22;55412;51.350;17.056;2022-09-12T16:26:04;19.80;63.50
68433;DHT22;55412;51.350;17.056;2022-09-12T16:28:31;19.70;63.50
68433;DHT22;55412;51.350;17.056;2022-09-12T16:31:03;19.70;63.50
68433;DHT22;55412;51.350;17.056;2022-09-12T16:33:30;19.70;63.30
68433;DHT22;55412;51.350;17.056;2022-09-12T16:36:05;19.60;63.50
68433;DHT22;55412;51.350;17.056;2022-09-12T16:38:38;19.50;63.60
68433;DHT22;55412;51.350;17.056;2022-09-12T16:41:06;19.50;63.50
68433;DHT22;55412;51.350;17.056;2022-09-12T16:43:34;19.40;63.90
68433;DHT22;55412;51.350;17.056;2022-09-12T16:46:07;19.40;64.00
68433;DHT22;55412;51.350;17.056;2022-09-12T16:48:34;19.40;64.10
68433;DHT22;55412;51.350;17.056;2022-09-12T16:51:03;19.30;64.00
68433;DHT22;55412;51.350;17.056;2022-09-12T16:53:35;19.30;64.00
68433;DHT22;55412;51.350;17.056;2022-09-12T16:56:05;19.20;64.10
68433;DHT22;55412;51.350;17.056;2022-09-12T16:58:34;19.20;64.00
68433;DHT22;55412;51.350;17.056;2022-09-12T17:01:06;19.10;64.20
68433;DHT22;55412;51.350;17.056;2022-09-12T17:03:33;19.00;64.80
68433;DHT22;55412;51.350;17.056;2022-09-12T17:06:09;18.90;64.90
68433;DHT22;55412;51.350;17.056;2022-09-12T17:08:39;18.80;65.40
68433;DHT22;55412;51.350;17.056;2022-09-12T17:13:47;18.60;65.90
68433;DHT22;55412;51.350;17.056;2022-09-12T17:16:18;18.50;65.80
68433;DHT22;55412;51.350;17.056;2022-09-12T17:18:45;18.40;66.10
68433;DHT22;55412;51.350;17.056;2022-09-12T17:21:11;18.40;66.20
68433;DHT22;55412;51.350;17.056;2022-09-12T17:23:38;18.30;66.30
68433;DHT22;55412;51.350;17.056;2022-09-12T17:26:05;18.20;66.50
68433;DHT22;55412;51.350;17.056;2022-09-12T17:28:32;18.10;67.00
68433;DHT22;55412;51.350;17.056;2022-09-12T17:31:00;18.10;67.30
68433;DHT22;55412;51.350;17.056;2022-09-12T17:33:28;18.00;67.50
68433;DHT22;55412;51.350;17.056;2022-09-12T17:35:58;17.90;67.60
68433;DHT22;55412;51.350;17.056;2022-09-12T17:38:31;17.90;67.80
68433;DHT22;55412;51.350;17.056;2022-09-12T17:41:07;17.80;68.00
68433;DHT22;55412;51.350;17.056;2022-09-12T17:43:46;17.80;68.10
68433;DHT22;55412;51.350;17.056;2022-09-12T17:46:18;17.70;67.90
68433;DHT22;55412;51.350;17.056;2022-09-12T17:48:49;17.60;68.00
68433;DHT22;55412;51.350;17.056;2022-09-12T17:51:16;17.60;67.70
68433;DHT22;55412;51.350;17.056;2022-09-12T17:53:42;17.50;68.00
68433;DHT22;55412;51.350;17.056;2022-09-12T17:56:10;17.40;68.20
68433;DHT22;55412;51.350;17.056;2022-09-12T17:58:36;17.30;68.30
68433;DHT22;55412;51.350;17.056;2022-09-12T18:01:11;17.20;68.80
68433;DHT22;55412;51.350;17.056;2022-09-12T18:03:58;17.20;69.10
68433;DHT22;55412;51.350;17.056;2022-09-12T18:06:26;17.10;69.30
68433;DHT22;55412;51.350;17.056;2022-09-12T18:08:53;17.10;69.50
68433;DHT22;55412;51.350;17.056;2022-09-12T18:11:19;17.10;69.40
68433;DHT22;55412;51.350;17.056;2022-09-12T18:13:45;17.00;69.70
68433;DHT22;55412;51.350;17.056;2022-09-12T18:16:12;17.00;69.50
68433;DHT22;55412;51.350;17.056;2022-09-12T18:18:39;17.00;69.60
68433;DHT22;55412;51.350;17.056;2022-09-12T18:21:07;16.90;69.90
68433;DHT22;55412;51.350;17.056;2022-09-12T18:23:35;16.80;70.00
68433;DHT22;55412;51.350;17.056;2022-09-12T18:26:06;16.70;70.40
68433;DHT22;55412;51.350;17.056;2022-09-12T18:28:35;16.60;70.60
68433;DHT22;55412;51.350;17.056;2022-09-12T18:31:03;16.50;71.10
68433;DHT22;55412;51.350;17.056;2022-09-12T18:33:34;16.50;71.50